sensor_id;sensor_type;location;lat;lon;timestamp;P1;durP1;ratioP1;P2;durP2;ratioP2
18834;SDS011;9546;59.262;18.036;2022-08-01T00:01:49;1.40;;;0.90;;
18834;SDS011;9546;59.262;18.036;2022-08-01T00:04:16;3.63;;;1.30;;
18834;SDS011;9546;59.262;18.036;2022-08-01T00:06:42;1.90;;;1.20;;
18834;SDS011;9546;59.262;18.036;2022-08-01T00:09:09;1.95;;;1.20;;
18834;SDS011;9546;59.262;18.036;2022-08-01T00:11:36;1.65;;;1.30;;
18834;SDS011;9546;59.262;18.036;2022-08-01T00:14:03;3.53;;;1.33;;
18834;SDS011;9546;59.262;18.036;2022-08-01T00:16:30;2.47;;;1.02;;
18834;SDS011;9546;59.262;18.036;2022-08-01T00:18:58;2.47;;;1.10;;
18834;SDS011;9546;59.262;18.036;2022-08-01T00:21:25;4.20;;;1.35;;
18834;SDS011;9546;59.262;18.036;2022-08-01T00:23:52;2.05;;;1.50;;
18834;SDS011;9546;59.262;18.036;2022-08-01T00:26:19;2.35;;;1.10;;
18834;SDS011;9546;59.262;18.036;2022-08-01T00:28:46;1.33;;;1.23;;
18834;SDS011;9546;59.262;18.036;2022-08-01T00:31:13;1.45;;;1.10;;
18834;SDS011;9546;59.262;18.036;2022-08-01T00:33:40;2.38;;;1.30;;
18834;SDS011;9546;59.262;18.036;2022-08-01T00:36:08;1.40;;;1.30;;
18834;SDS011;9546;59.262;18.036;2022-08-01T00:38:35;2.03;;;1.10;;
18834;SDS011;9546;59.262;18.036;2022-08-01T00:41:02;1.88;;;1.40;;
18834;SDS011;9546;59.262;18.036;2022-08-01T00:43:28;3.03;;;1.38;;
18834;SDS011;9546;59.262;18.036;2022-08-01T00:45:55;2.45;;;1.13;;
18834;SDS011;9546;59.262;18.036;2022-08-01T00:48:22;2.95;;;1.23;;
18834;SDS011;9546;59.262;18.036;2022-08-01T00:50:49;1.65;;;1.17;;
18834;SDS011;9546;59.262;18.036;2022-08-01T01:12:14;1.48;;;1.38;;
18834;SDS011;9546;59.262;18.036;2022-08-01T01:14:50;1.70;;;1.30;;
18834;SDS011;9546;59.262;18.036;2022-08-01T01:17:24;3.25;;;1.70;;
18834;SDS011;9546;59.262;18.036;2022-08-01T01:19:55;3.25;;;1.70;;
18834;SDS011;9546;59.262;18.036;2022-08-01T01:22:31;4.15;;;1.80;;
18834;SDS011;9546;59.262;18.036;2022-08-01T01:25:25;2.80;;;1.48;;
18834;SDS011;9546;59.262;18.036;2022-08-01T01:28:08;2.42;;;1.30;;
18834;SDS011;9546;59.262;18.036;2022-08-01T01:30:42;2.45;;;1.33;;
18834;SDS011;9546;59.262;18.036;2022-08-01T01:33:12;1.63;;;1.17;;
18834;SDS011;9546;59.262;18.036;2022-08-01T01:35:42;1.95;;;1.40;;
18834;SDS011;9546;59.262;18.036;2022-08-01T01:38:14;4.07;;;1.50;;
18834;SDS011;9546;59.262;18.036;2022-08-01T01:40:44;2.35;;;1.40;;
18834;SDS011;9546;59.262;18.036;2022-08-01T01:43:12;3.83;;;1.60;;
18834;SDS011;9546;59.262;18.036;2022-08-01T01:45:40;2.28;;;1.10;;
18834;SDS011;9546;59.262;18.036;2022-08-01T01:48:12;3.63;;;1.52;;
18834;SDS011;9546;59.262;18.036;2022-08-01T01:50:41;2.08;;;1.45;;
18834;SDS011;9546;59.262;18.036;2022-08-01T01:53:12;1.50;;;1.40;;
18834;SDS011;9546;59.262;18.036;2022-08-01T01:55:40;2.50;;;1.60;;
18834;SDS011;9546;59.262;18.036;2022-08-01T01:58:07;3.58;;;1.30;;
18834;SDS011;9546;59.262;18.036;2022-08-01T02:00:38;2.03;;;1.55;;
18834;SDS011;9546;59.262;18.036;2022-08-01T02:03:07;4.10;;;1.48;;
18834;SDS011;9546;59.262;18.036;2022-08-01T02:05:36;2.25;;;1.38;;
18834;SDS011;9546;59.262;18.036;2022-08-01T02:08:04;1.42;;;1.33;;
18834;SDS011;9546;59.262;18.036;2022-08-01T02:10:33;1.88;;;1.20;;
18834;SDS011;9546;59.262;18.036;2022-08-01T02:13:02;1.50;;;1.20;;
18834;SDS011;9546;59.262;18.036;2022-08-01T02:15:32;2.17;;;1.33;;
18834;SDS011;9546;59.262;18.036;2022-08-01T02:18:03;1.40;;;1.30;;
18834;SDS011;9546;59.262;18.036;2022-08-01T02:20:34;2.22;;;1.42;;
18834;SDS011;9546;59.262;18.036;2022-08-01T02:23:06;2.40;;;1.40;;
18834;SDS011;9546;59.262;18.036;2022-08-01T02:25:36;1.52;;;1.42;;
18834;SDS011;9546;59.262;18.036;2022-08-01T02:28:07;1.33;;;1.20;;
18834;SDS011;9546;59.262;18.036;2022-08-01T02:30:36;1.20;;;1.10;;
18834;SDS011;9546;59.262;18.036;2022-08-01T02:33:05;2.95;;;1.20;;
18834;SDS011;9546;59.262;18.036;2022-08-01T02:35:38;2.42;;;1.88;;
18834;SDS011;9546;59.262;18.036;2022-08-01T02:38:09;2.15;;;1.50;;
18834;SDS011;9546;59.262;18.036;2022-08-01T02:40:37;1.88;;;1.40;;
18834;SDS011;9546;59.262;18.036;2022-08-01T02:43:07;2.75;;;1.42;;
18834;SDS011;9546;59.262;18.036;2022-08-01T02:45:37;1.52;;;1.38;;
18834;SDS011;9546;59.262;18.036;2022-08-01T02:48:11;2.50;;;1.40;;
18834;SDS011;9546;59.262;18.036;2022-08-01T02:50:39;4.40;;;1.30;;
18834;SDS011;9546;59.262;18.036;2022-08-01T03:12:39;3.47;;;1.38;;
18834;SDS011;9546;59.262;18.036;2022-08-01T03:15:07;3.42;;;1.38;;
18834;SDS011;9546;59.262;18.036;2022-08-01T03:17:35;4.30;;;1.50;;
18834;SDS011;9546;59.262;18.036;2022-08-01T03:20:03;4.00;;;1.48;;
18834;SDS011;9546;59.262;18.036;2022-08-01T03:22:30;2.35;;;1.52;;
18834;SDS011;9546;59.262;18.036;2022-08-01T03:24:58;1.80;;;1.35;;
18834;SDS011;9546;59.262;18.036;2022-08-01T03:27:25;1.65;;;1.55;;
18834;SDS011;9546;59.262;18.036;2022-08-01T03:29:54;2.35;;;1.50;;
18834;SDS011;9546;59.262;18.036;2022-08-01T03:32:21;3.53;;;1.67;;
18834;SDS011;9546;59.262;18.036;2022-08-01T03:34:48;6.78;;;1.88;;
18834;SDS011;9546;59.262;18.036;2022-08-01T03:37:17;1.65;;;1.55;;
18834;SDS011;9546;59.262;18.036;2022-08-01T03:39:46;2.17;;;1.65;;
18834;SDS011;9546;59.262;18.036;2022-08-01T03:42:16;3.67;;;1.70;;
18834;SDS011;9546;59.262;18.036;2022-08-01T03:44:44;1.55;;;1.45;;
18834;SDS011;9546;59.262;18.036;2022-08-01T03:47:15;4.68;;;1.60;;
18834;SDS011;9546;59.262;18.036;2022-08-01T03:49:43;1.52;;;1.42;;
18834;SDS011;9546;59.262;18.036;2022-08-01T03:52:10;2.65;;;1.50;;
18834;SDS011;9546;59.262;18.036;2022-08-01T03:54:38;2.33;;;1.70;;
18834;SDS011;9546;59.262;18.036;2022-08-01T03:57:06;2.33;;;1.48;;
18834;SDS011;9546;59.262;18.036;2022-08-01T03:59:34;2.25;;;1.50;;
18834;SDS011;9546;59.262;18.036;2022-08-01T04:02:01;1.55;;;1.40;;
18834;SDS011;9546;59.262;18.036;2022-08-01T04:04:30;1.60;;;1.50;;
18834;SDS011;9546;59.262;18.036;2022-08-01T04:06:57;1.73;;;1.60;;
18834;SDS011;9546;59.262;18.036;2022-08-01T04:09:29;3.17;;;2.00;;
18834;SDS011;9546;59.262;18.036;2022-08-01T04:11:55;1.80;;;1.70;;
18834;SDS011;9546;59.262;18.036;2022-08-01T04:14:22;1.50;;;1.40;;
18834;SDS011;9546;59.262;18.036;2022-08-01T04:16:48;2.55;;;1.90;;
18834;SDS011;9546;59.262;18.036;2022-08-01T04:19:15;1.80;;;1.70;;
18834;SDS011;9546;59.262;18.036;2022-08-01T04:21:43;4.53;;;1.55;;
18834;SDS011;9546;59.262;18.036;2022-08-01T04:24:10;3.45;;;1.58;;
18834;SDS011;9546;59.262;18.036;2022-08-01T04:26:39;2.22;;;1.60;;
18834;SDS011;9546;59.262;18.036;2022-08-01T04:29:06;3.25;;;1.80;;
18834;SDS011;9546;59.262;18.036;2022-08-01T04:31:34;2.80;;;1.70;;
18834;SDS011;9546;59.262;18.036;2022-08-01T04:34:01;3.90;;;1.50;;
18834;SDS011;9546;59.262;18.036;2022-08-01T04:36:29;3.75;;;1.73;;
18834;SDS011;9546;59.262;18.036;2022-08-01T04:39:00;2.85;;;1.48;;
18834;SDS011;9546;59.262;18.036;2022-08-01T04:41:27;2.30;;;1.50;;
18834;SDS011;9546;59.262;18.036;2022-08-01T04:43:54;2.20;;;1.65;;
18834;SDS011;9546;59.262;18.036;2022-08-01T04:46:20;4.70;;;1.67;;
18834;SDS011;9546;59.262;18.036;2022-08-01T04:48:47;3.72;;;1.80;;
18834;SDS011;9546;59.262;18.036;2022-08-01T04:51:15;3.70;;;1.45;;
18834;SDS011;9546;59.262;18.036;2022-08-01T05:12:16;1.25;;;1.13;;
18834;SDS011;9546;59.262;18.036;2022-08-01T05:14:43;2.85;;;1.30;;
18834;SDS011;9546;59.262;18.036;2022-08-01T05:17:09;4.10;;;1.40;;
18834;SDS011;9546;59.262;18.036;2022-08-01T05:19:37;2.53;;;1.80;;
18834;SDS011;9546;59.262;18.036;2022-08-01T05:22:04;3.38;;;1.20;;
18834;SDS011;9546;59.262;18.036;2022-08-01T05:24:31;2.33;;;1.10;;
18834;SDS011;9546;59.262;18.036;2022-08-01T05:26:57;3.67;;;1.27;;
18834;SDS011;9546;59.262;18.036;2022-08-01T05:29:26;1.13;;;1.02;;
18834;SDS011;9546;59.262;18.036;2022-08-01T05:31:53;5.60;;;1.20;;
18834;SDS011;9546;59.262;18.036;2022-08-01T05:34:20;4.30;;;1.17;;
18834;SDS011;9546;59.262;18.036;2022-08-01T05:36:46;3.30;;;1.17;;
18834;SDS011;9546;59.262;18.036;2022-08-01T05:39:13;1.90;;;1.30;;
18834;SDS011;9546;59.262;18.036;2022-08-01T05:41:40;3.33;;;1.63;;
18834;SDS011;9546;59.262;18.036;2022-08-01T05:44:06;5.85;;;1.40;;
18834;SDS011;9546;59.262;18.036;2022-08-01T05:46:35;1.10;;;1.00;;
18834;SDS011;9546;59.262;18.036;2022-08-01T05:49:02;3.33;;;1.08;;
18834;SDS011;9546;59.262;18.036;2022-08-01T05:51:29;2.55;;;0.93;;
18834;SDS011;9546;59.262;18.036;2022-08-01T05:53:55;1.20;;;1.10;;
18834;SDS011;9546;59.262;18.036;2022-08-01T05:56:22;2.35;;;1.00;;
18834;SDS011;9546;59.262;18.036;2022-08-01T05:58:49;2.97;;;1.10;;
18834;SDS011;9546;59.262;18.036;2022-08-01T06:01:15;4.10;;;1.13;;
18834;SDS011;9546;59.262;18.036;2022-08-01T06:03:43;1.98;;;1.33;;
18834;SDS011;9546;59.262;18.036;2022-08-01T06:06:10;2.45;;;1.23;;
18834;SDS011;9546;59.262;18.036;2022-08-01T06:08:36;1.63;;;1.10;;
18834;SDS011;9546;59.262;18.036;2022-08-01T06:11:03;2.03;;;1.20;;
18834;SDS011;9546;59.262;18.036;2022-08-01T06:13:30;1.52;;;1.10;;
18834;SDS011;9546;59.262;18.036;2022-08-01T06:15:56;4.30;;;1.38;;
18834;SDS011;9546;59.262;18.036;2022-08-01T06:18:23;1.45;;;1.00;;
18834;SDS011;9546;59.262;18.036;2022-08-01T06:20:51;2.35;;;1.10;;
18834;SDS011;9546;59.262;18.036;2022-08-01T06:23:19;2.05;;;1.20;;
18834;SDS011;9546;59.262;18.036;2022-08-01T06:25:46;2.53;;;1.13;;
18834;SDS011;9546;59.262;18.036;2022-08-01T06:28:12;2.45;;;1.30;;
18834;SDS011;9546;59.262;18.036;2022-08-01T06:30:39;1.95;;;0.90;;
18834;SDS011;9546;59.262;18.036;2022-08-01T06:33:05;0.93;;;0.88;;
18834;SDS011;9546;59.262;18.036;2022-08-01T06:35:32;1.65;;;1.00;;
18834;SDS011;9546;59.262;18.036;2022-08-01T06:38:00;4.53;;;1.00;;
18834;SDS011;9546;59.262;18.036;2022-08-01T06:40:27;2.05;;;0.85;;
18834;SDS011;9546;59.262;18.036;2022-08-01T06:42:54;1.75;;;1.02;;
18834;SDS011;9546;59.262;18.036;2022-08-01T06:45:20;1.73;;;0.90;;
18834;SDS011;9546;59.262;18.036;2022-08-01T06:47:49;1.90;;;0.90;;
18834;SDS011;9546;59.262;18.036;2022-08-01T06:50:19;0.80;;;0.80;;
18834;SDS011;9546;59.262;18.036;2022-08-01T07:12:28;2.15;;;0.90;;
18834;SDS011;9546;59.262;18.036;2022-08-01T07:14:55;1.65;;;0.90;;
18834;SDS011;9546;59.262;18.036;2022-08-01T07:17:21;1.27;;;1.00;;
18834;SDS011;9546;59.262;18.036;2022-08-01T07:19:48;2.13;;;1.17;;
18834;SDS011;9546;59.262;18.036;2022-08-01T07:22:14;4.45;;;1.10;;
18834;SDS011;9546;59.262;18.036;2022-08-01T07:24:41;1.08;;;0.98;;
18834;SDS011;9546;59.262;18.036;2022-08-01T07:27:08;4.22;;;0.90;;
18834;SDS011;9546;59.262;18.036;2022-08-01T07:29:36;0.88;;;0.82;;
18834;SDS011;9546;59.262;18.036;2022-08-01T07:32:02;1.20;;;1.10;;
18834;SDS011;9546;59.262;18.036;2022-08-01T07:34:29;3.15;;;1.00;;
18834;SDS011;9546;59.262;18.036;2022-08-01T07:36:56;1.80;;;0.93;;
18834;SDS011;9546;59.262;18.036;2022-08-01T07:39:22;1.25;;;1.00;;
18834;SDS011;9546;59.262;18.036;2022-08-01T07:41:49;1.27;;;1.02;;
18834;SDS011;9546;59.262;18.036;2022-08-01T07:44:15;1.20;;;0.90;;
18834;SDS011;9546;59.262;18.036;2022-08-01T07:46:43;1.88;;;0.90;;
18834;SDS011;9546;59.262;18.036;2022-08-01T07:49:10;1.13;;;0.98;;
18834;SDS011;9546;59.262;18.036;2022-08-01T07:51:36;2.25;;;0.80;;
18834;SDS011;9546;59.262;18.036;2022-08-01T07:54:03;1.17;;;0.90;;
18834;SDS011;9546;59.262;18.036;2022-08-01T07:56:30;2.90;;;1.20;;
18834;SDS011;9546;59.262;18.036;2022-08-01T07:58:56;3.30;;;0.90;;
18834;SDS011;9546;59.262;18.036;2022-08-01T08:01:23;1.25;;;0.93;;
18834;SDS011;9546;59.262;18.036;2022-08-01T08:03:51;2.13;;;0.90;;
18834;SDS011;9546;59.262;18.036;2022-08-01T08:06:17;1.52;;;0.90;;
18834;SDS011;9546;59.262;18.036;2022-08-01T08:08:44;1.33;;;1.00;;
18834;SDS011;9546;59.262;18.036;2022-08-01T08:11:10;1.85;;;0.88;;
18834;SDS011;9546;59.262;18.036;2022-08-01T08:13:37;1.50;;;0.80;;
18834;SDS011;9546;59.262;18.036;2022-08-01T08:16:03;1.30;;;1.20;;
18834;SDS011;9546;59.262;18.036;2022-08-01T08:18:30;1.65;;;1.00;;
18834;SDS011;9546;59.262;18.036;2022-08-01T08:20:57;0.80;;;0.80;;
18834;SDS011;9546;59.262;18.036;2022-08-01T08:23:24;1.30;;;0.90;;
18834;SDS011;9546;59.262;18.036;2022-08-01T08:26:08;1.40;;;1.00;;
18834;SDS011;9546;59.262;18.036;2022-08-01T08:28:34;1.30;;;0.80;;
18834;SDS011;9546;59.262;18.036;2022-08-01T08:31:01;1.88;;;0.80;;
18834;SDS011;9546;59.262;18.036;2022-08-01T08:33:27;0.80;;;0.80;;
18834;SDS011;9546;59.262;18.036;2022-08-01T08:35:54;1.58;;;0.80;;
18834;SDS011;9546;59.262;18.036;2022-08-01T08:38:22;1.02;;;0.80;;
18834;SDS011;9546;59.262;18.036;2022-08-01T08:40:51;1.73;;;1.00;;
18834;SDS011;9546;59.262;18.036;2022-08-01T08:43:17;0.77;;;0.77;;
18834;SDS011;9546;59.262;18.036;2022-08-01T08:45:44;2.50;;;0.80;;
18834;SDS011;9546;59.262;18.036;2022-08-01T08:48:11;2.28;;;1.00;;
18834;SDS011;9546;59.262;18.036;2022-08-01T08:50:38;2.72;;;0.80;;
18834;SDS011;9546;59.262;18.036;2022-08-01T09:13:05;3.42;;;0.80;;
18834;SDS011;9546;59.262;18.036;2022-08-01T09:15:42;2.15;;;1.02;;
18834;SDS011;9546;59.262;18.036;2022-08-01T09:18:23;1.63;;;0.90;;
18834;SDS011;9546;59.262;18.036;2022-08-01T09:20:50;1.08;;;0.90;;
18834;SDS011;9546;59.262;18.036;2022-08-01T09:23:30;1.13;;;0.90;;
18834;SDS011;9546;59.262;18.036;2022-08-01T09:25:57;1.30;;;0.90;;
18834;SDS011;9546;59.262;18.036;2022-08-01T09:28:28;1.65;;;0.90;;
18834;SDS011;9546;59.262;18.036;2022-08-01T09:30:55;0.80;;;0.80;;
18834;SDS011;9546;59.262;18.036;2022-08-01T09:33:22;1.30;;;0.88;;
18834;SDS011;9546;59.262;18.036;2022-08-01T09:35:53;1.30;;;1.00;;
18834;SDS011;9546;59.262;18.036;2022-08-01T09:38:21;1.35;;;1.17;;
18834;SDS011;9546;59.262;18.036;2022-08-01T09:40:49;2.75;;;1.10;;
18834;SDS011;9546;59.262;18.036;2022-08-01T09:43:15;1.20;;;1.10;;
18834;SDS011;9546;59.262;18.036;2022-08-01T09:45:43;3.42;;;1.10;;
18834;SDS011;9546;59.262;18.036;2022-08-01T09:48:10;1.55;;;0.95;;
18834;SDS011;9546;59.262;18.036;2022-08-01T09:50:40;2.30;;;1.10;;
18834;SDS011;9546;59.262;18.036;2022-08-01T09:53:08;3.00;;;1.23;;
18834;SDS011;9546;59.262;18.036;2022-08-01T09:55:34;2.10;;;0.90;;
18834;SDS011;9546;59.262;18.036;2022-08-01T09:58:01;2.55;;;1.15;;
18834;SDS011;9546;59.262;18.036;2022-08-01T10:00:29;1.20;;;1.02;;
18834;SDS011;9546;59.262;18.036;2022-08-01T10:02:57;1.30;;;1.10;;
18834;SDS011;9546;59.262;18.036;2022-08-01T10:05:30;2.58;;;0.93;;
18834;SDS011;9546;59.262;18.036;2022-08-01T10:07:57;2.00;;;1.00;;
18834;SDS011;9546;59.262;18.036;2022-08-01T10:10:24;2.17;;;1.40;;
18834;SDS011;9546;59.262;18.036;2022-08-01T10:12:51;1.55;;;0.90;;
18834;SDS011;9546;59.262;18.036;2022-08-01T10:15:18;1.40;;;1.10;;
18834;SDS011;9546;59.262;18.036;2022-08-01T10:17:48;2.92;;;1.10;;
18834;SDS011;9546;59.262;18.036;2022-08-01T10:20:18;1.77;;;1.00;;
18834;SDS011;9546;59.262;18.036;2022-08-01T10:22:45;2.55;;;1.00;;
18834;SDS011;9546;59.262;18.036;2022-08-01T10:25:12;2.20;;;0.95;;
18834;SDS011;9546;59.262;18.036;2022-08-01T10:27:42;1.15;;;1.05;;
18834;SDS011;9546;59.262;18.036;2022-08-01T10:30:10;1.73;;;1.15;;
18834;SDS011;9546;59.262;18.036;2022-08-01T10:32:37;1.35;;;0.93;;
18834;SDS011;9546;59.262;18.036;2022-08-01T10:35:07;3.63;;;1.05;;
18834;SDS011;9546;59.262;18.036;2022-08-01T10:37:35;1.85;;;0.85;;
18834;SDS011;9546;59.262;18.036;2022-08-01T10:40:02;1.10;;;1.00;;
18834;SDS011;9546;59.262;18.036;2022-08-01T10:42:30;3.95;;;1.00;;
18834;SDS011;9546;59.262;18.036;2022-08-01T10:44:56;1.38;;;0.90;;
18834;SDS011;9546;59.262;18.036;2022-08-01T10:47:24;1.35;;;1.10;;
18834;SDS011;9546;59.262;18.036;2022-08-01T10:49:56;2.55;;;1.00;;
18834;SDS011;9546;59.262;18.036;2022-08-01T11:12:37;1.58;;;1.00;;
18834;SDS011;9546;59.262;18.036;2022-08-01T11:15:21;1.05;;;0.95;;
18834;SDS011;9546;59.262;18.036;2022-08-01T11:17:52;0.90;;;0.90;;
18834;SDS011;9546;59.262;18.036;2022-08-01T11:20:21;1.40;;;0.88;;
18834;SDS011;9546;59.262;18.036;2022-08-01T11:26:08;12.40;;;1.30;;
18834;SDS011;9546;59.262;18.036;2022-08-01T11:28:38;1.88;;;1.13;;
18834;SDS011;9546;59.262;18.036;2022-08-01T11:34:05;2.10;;;1.05;;
18834;SDS011;9546;59.262;18.036;2022-08-01T11:36:32;2.58;;;0.98;;
18834;SDS011;9546;59.262;18.036;2022-08-01T11:39:13;2.42;;;1.10;;
18834;SDS011;9546;59.262;18.036;2022-08-01T11:41:41;2.45;;;0.90;;
18834;SDS011;9546;59.262;18.036;2022-08-01T11:44:11;2.30;;;1.00;;
18834;SDS011;9546;59.262;18.036;2022-08-01T11:46:48;1.83;;;0.95;;
18834;SDS011;9546;59.262;18.036;2022-08-01T11:49:23;0.95;;;0.85;;
18834;SDS011;9546;59.262;18.036;2022-08-01T11:51:57;3.80;;;1.00;;
18834;SDS011;9546;59.262;18.036;2022-08-01T11:54:26;1.17;;;0.90;;
18834;SDS011;9546;59.262;18.036;2022-08-01T11:56:55;1.45;;;0.80;;
18834;SDS011;9546;59.262;18.036;2022-08-01T11:59:24;2.45;;;0.80;;
18834;SDS011;9546;59.262;18.036;2022-08-01T12:01:51;1.10;;;1.00;;
18834;SDS011;9546;59.262;18.036;2022-08-01T12:04:18;1.73;;;1.15;;
18834;SDS011;9546;59.262;18.036;2022-08-01T12:06:45;1.50;;;0.73;;
18834;SDS011;9546;59.262;18.036;2022-08-01T12:09:19;2.30;;;1.38;;
18834;SDS011;9546;59.262;18.036;2022-08-01T12:11:46;1.55;;;1.10;;
18834;SDS011;9546;59.262;18.036;2022-08-01T12:14:20;1.48;;;1.02;;
18834;SDS011;9546;59.262;18.036;2022-08-01T12:16:52;0.90;;;0.90;;
18834;SDS011;9546;59.262;18.036;2022-08-01T12:19:23;0.80;;;0.80;;
18834;SDS011;9546;59.262;18.036;2022-08-01T12:22:07;2.42;;;0.90;;
18834;SDS011;9546;59.262;18.036;2022-08-01T12:24:34;2.35;;;1.10;;
18834;SDS011;9546;59.262;18.036;2022-08-01T12:27:02;1.35;;;0.90;;
18834;SDS011;9546;59.262;18.036;2022-08-01T12:29:33;0.95;;;0.90;;
18834;SDS011;9546;59.262;18.036;2022-08-01T12:32:02;1.45;;;0.90;;
18834;SDS011;9546;59.262;18.036;2022-08-01T12:34:30;0.80;;;0.80;;
18834;SDS011;9546;59.262;18.036;2022-08-01T12:36:59;1.20;;;0.88;;
18834;SDS011;9546;59.262;18.036;2022-08-01T12:39:31;1.42;;;0.75;;
18834;SDS011;9546;59.262;18.036;2022-08-01T12:41:59;1.48;;;0.90;;
18834;SDS011;9546;59.262;18.036;2022-08-01T12:44:26;1.20;;;0.90;;
18834;SDS011;9546;59.262;18.036;2022-08-01T12:46:55;1.20;;;1.00;;
18834;SDS011;9546;59.262;18.036;2022-08-01T12:49:24;1.27;;;0.90;;
18834;SDS011;9546;59.262;18.036;2022-08-01T12:51:52;2.72;;;1.00;;
18834;SDS011;9546;59.262;18.036;2022-08-01T13:12:31;3.30;;;1.00;;
18834;SDS011;9546;59.262;18.036;2022-08-01T13:14:58;0.90;;;0.70;;
18834;SDS011;9546;59.262;18.036;2022-08-01T13:17:31;1.40;;;0.93;;
18834;SDS011;9546;59.262;18.036;2022-08-01T13:20:00;1.30;;;0.77;;
18834;SDS011;9546;59.262;18.036;2022-08-01T13:22:33;1.88;;;0.80;;
18834;SDS011;9546;59.262;18.036;2022-08-01T13:25:09;1.13;;;0.80;;
18834;SDS011;9546;59.262;18.036;2022-08-01T13:27:39;1.58;;;0.77;;
18834;SDS011;9546;59.262;18.036;2022-08-01T13:30:10;2.05;;;0.90;;
18834;SDS011;9546;59.262;18.036;2022-08-01T13:32:38;1.35;;;1.02;;
18834;SDS011;9546;59.262;18.036;2022-08-01T13:35:08;2.75;;;0.90;;
18834;SDS011;9546;59.262;18.036;2022-08-01T13:37:35;2.17;;;0.82;;
18834;SDS011;9546;59.262;18.036;2022-08-01T13:40:03;3.72;;;1.20;;
18834;SDS011;9546;59.262;18.036;2022-08-01T13:42:30;1.50;;;0.80;;
18834;SDS011;9546;59.262;18.036;2022-08-01T13:44:58;1.10;;;0.80;;
18834;SDS011;9546;59.262;18.036;2022-08-01T13:47:25;3.03;;;1.00;;
18834;SDS011;9546;59.262;18.036;2022-08-01T13:49:52;1.85;;;0.80;;
18834;SDS011;9546;59.262;18.036;2022-08-01T13:52:19;2.78;;;1.00;;
18834;SDS011;9546;59.262;18.036;2022-08-01T13:54:46;3.08;;;0.80;;
18834;SDS011;9546;59.262;18.036;2022-08-01T13:57:12;1.33;;;0.75;;
18834;SDS011;9546;59.262;18.036;2022-08-01T13:59:41;1.92;;;0.90;;
18834;SDS011;9546;59.262;18.036;2022-08-01T14:02:09;2.10;;;1.02;;
18834;SDS011;9546;59.262;18.036;2022-08-01T14:04:36;1.10;;;0.82;;
18834;SDS011;9546;59.262;18.036;2022-08-01T14:07:03;0.70;;;0.70;;
18834;SDS011;9546;59.262;18.036;2022-08-01T14:09:30;2.80;;;1.25;;
18834;SDS011;9546;59.262;18.036;2022-08-01T14:11:58;1.83;;;0.70;;
18834;SDS011;9546;59.262;18.036;2022-08-01T14:14:25;1.02;;;0.88;;
18834;SDS011;9546;59.262;18.036;2022-08-01T14:16:52;1.20;;;0.80;;
18834;SDS011;9546;59.262;18.036;2022-08-01T14:19:20;1.23;;;0.77;;
18834;SDS011;9546;59.262;18.036;2022-08-01T14:21:47;1.85;;;0.70;;
18834;SDS011;9546;59.262;18.036;2022-08-01T14:24:14;0.90;;;0.60;;
18834;SDS011;9546;59.262;18.036;2022-08-01T14:26:40;3.33;;;0.80;;
18834;SDS011;9546;59.262;18.036;2022-08-01T14:29:07;1.92;;;0.95;;
18834;SDS011;9546;59.262;18.036;2022-08-01T14:31:34;1.05;;;0.60;;
18834;SDS011;9546;59.262;18.036;2022-08-01T14:34:01;2.22;;;1.20;;
18834;SDS011;9546;59.262;18.036;2022-08-01T14:36:30;1.15;;;1.05;;
18834;SDS011;9546;59.262;18.036;2022-08-01T14:38:57;2.00;;;0.85;;
18834;SDS011;9546;59.262;18.036;2022-08-01T14:41:24;0.82;;;0.82;;
18834;SDS011;9546;59.262;18.036;2022-08-01T14:43:51;4.53;;;0.95;;
18834;SDS011;9546;59.262;18.036;2022-08-01T14:46:17;1.20;;;0.98;;
18834;SDS011;9546;59.262;18.036;2022-08-01T14:48:44;0.82;;;0.82;;
18834;SDS011;9546;59.262;18.036;2022-08-01T14:51:11;0.82;;;0.80;;
18834;SDS011;9546;59.262;18.036;2022-08-01T15:12:58;1.63;;;0.88;;
18834;SDS011;9546;59.262;18.036;2022-08-01T15:15:26;1.70;;;0.90;;
18834;SDS011;9546;59.262;18.036;2022-08-01T15:17:53;1.60;;;0.88;;
18834;SDS011;9546;59.262;18.036;2022-08-01T15:20:20;2.28;;;0.82;;
18834;SDS011;9546;59.262;18.036;2022-08-01T15:22:47;0.80;;;0.80;;
18834;SDS011;9546;59.262;18.036;2022-08-01T15:25:14;1.10;;;0.80;;
18834;SDS011;9546;59.262;18.036;2022-08-01T15:27:40;2.15;;;1.08;;
18834;SDS011;9546;59.262;18.036;2022-08-01T15:30:09;1.52;;;0.85;;
18834;SDS011;9546;59.262;18.036;2022-08-01T15:32:36;1.73;;;0.93;;
18834;SDS011;9546;59.262;18.036;2022-08-01T15:35:03;3.13;;;1.08;;
18834;SDS011;9546;59.262;18.036;2022-08-01T15:37:31;2.10;;;0.90;;
18834;SDS011;9546;59.262;18.036;2022-08-01T15:39:58;2.05;;;0.82;;
18834;SDS011;9546;59.262;18.036;2022-08-01T15:42:24;1.00;;;0.90;;
18834;SDS011;9546;59.262;18.036;2022-08-01T15:44:51;2.58;;;1.00;;
18834;SDS011;9546;59.262;18.036;2022-08-01T15:47:19;0.70;;;0.70;;
18834;SDS011;9546;59.262;18.036;2022-08-01T15:49:46;1.38;;;1.02;;
18834;SDS011;9546;59.262;18.036;2022-08-01T15:52:13;0.95;;;0.80;;
18834;SDS011;9546;59.262;18.036;2022-08-01T15:54:40;1.63;;;0.98;;
18834;SDS011;9546;59.262;18.036;2022-08-01T15:57:07;1.67;;;1.00;;
18834;SDS011;9546;59.262;18.036;2022-08-01T15:59:34;3.30;;;1.27;;
18834;SDS011;9546;59.262;18.036;2022-08-01T16:02:02;1.20;;;1.00;;
18834;SDS011;9546;59.262;18.036;2022-08-01T16:04:30;1.00;;;0.90;;
18834;SDS011;9546;59.262;18.036;2022-08-01T16:06:56;2.70;;;0.90;;
18834;SDS011;9546;59.262;18.036;2022-08-01T16:09:23;1.40;;;0.80;;
18834;SDS011;9546;59.262;18.036;2022-08-01T16:11:50;1.50;;;0.90;;
18834;SDS011;9546;59.262;18.036;2022-08-01T16:14:17;2.20;;;1.13;;
18834;SDS011;9546;59.262;18.036;2022-08-01T16:16:45;1.80;;;1.00;;
18834;SDS011;9546;59.262;18.036;2022-08-01T16:19:12;2.00;;;1.10;;
18834;SDS011;9546;59.262;18.036;2022-08-01T16:21:40;2.13;;;1.00;;
18834;SDS011;9546;59.262;18.036;2022-08-01T16:24:07;2.15;;;1.10;;
18834;SDS011;9546;59.262;18.036;2022-08-01T16:26:34;0.98;;;0.80;;
18834;SDS011;9546;59.262;18.036;2022-08-01T16:29:01;1.20;;;0.82;;
18834;SDS011;9546;59.262;18.036;2022-08-01T16:31:28;1.10;;;0.80;;
18834;SDS011;9546;59.262;18.036;2022-08-01T16:33:56;2.22;;;0.80;;
18834;SDS011;9546;59.262;18.036;2022-08-01T16:36:23;0.80;;;0.77;;
18834;SDS011;9546;59.262;18.036;2022-08-01T16:38:51;2.25;;;0.90;;
18834;SDS011;9546;59.262;18.036;2022-08-01T16:41:17;0.95;;;0.80;;
18834;SDS011;9546;59.262;18.036;2022-08-01T16:43:44;1.05;;;0.90;;
18834;SDS011;9546;59.262;18.036;2022-08-01T16:46:11;1.40;;;1.30;;
18834;SDS011;9546;59.262;18.036;2022-08-01T16:48:39;1.90;;;0.73;;
18834;SDS011;9546;59.262;18.036;2022-08-01T16:51:08;2.42;;;0.80;;
18834;SDS011;9546;59.262;18.036;2022-08-01T17:12:21;2.05;;;0.80;;
18834;SDS011;9546;59.262;18.036;2022-08-01T17:14:48;1.10;;;0.88;;
18834;SDS011;9546;59.262;18.036;2022-08-01T17:17:15;2.05;;;0.98;;
18834;SDS011;9546;59.262;18.036;2022-08-01T17:19:42;1.45;;;0.90;;
18834;SDS011;9546;59.262;18.036;2022-08-01T17:22:09;2.38;;;1.00;;
18834;SDS011;9546;59.262;18.036;2022-08-01T17:24:35;1.00;;;0.88;;
18834;SDS011;9546;59.262;18.036;2022-08-01T17:27:02;1.70;;;1.00;;
18834;SDS011;9546;59.262;18.036;2022-08-01T17:29:31;1.00;;;0.80;;
18834;SDS011;9546;59.262;18.036;2022-08-01T17:31:58;1.23;;;0.90;;
18834;SDS011;9546;59.262;18.036;2022-08-01T17:34:24;3.17;;;1.20;;
18834;SDS011;9546;59.262;18.036;2022-08-01T17:36:51;1.75;;;0.90;;
18834;SDS011;9546;59.262;18.036;2022-08-01T17:39:18;1.50;;;0.98;;
18834;SDS011;9546;59.262;18.036;2022-08-01T17:41:45;1.10;;;1.00;;
18834;SDS011;9546;59.262;18.036;2022-08-01T17:44:12;1.75;;;1.00;;
18834;SDS011;9546;59.262;18.036;2022-08-01T17:46:40;1.48;;;1.38;;
18834;SDS011;9546;59.262;18.036;2022-08-01T17:49:07;1.00;;;0.88;;
18834;SDS011;9546;59.262;18.036;2022-08-01T17:51:34;1.77;;;1.40;;
18834;SDS011;9546;59.262;18.036;2022-08-01T17:54:01;1.70;;;1.30;;